Time;durP1;ratioP1;P1;durP2;ratioP2;P2;SDS_P1;SDS_P2;PMS_P1;PMS_P2;Temp;Humidity;BMP_temperature;BMP_pressure;BME280_temperature;BME280_humidity;BME280_pressure;Samples;Min_cycle;Max_cycle;Signal;HPM_P1;HPM_P2
2022/08/19 00:01:19;;;;;;;11.85;10.50;;;19.80;99.90;;;;;;5052471;28;20087;-52
2022/08/19 00:03:45;;;;;;;14.57;10.02;;;19.80;99.90;;;;;;5052840;28;20052;-51
2022/08/19 00:06:11;;;;;;;11.75;10.48;;;19.80;99.90;;;;;;5052612;28;20033;-54
2022/08/19 00:08:36;;;;;;;14.48;11.30;;;19.80;99.90;;;;;;5052606;28;20091;-51
2022/08/19 00:11:02;;;;;;;13.63;9.95;;;19.70;99.90;;;;;;5052261;28;20041;-53
2022/08/19 00:13:28;;;;;;;11.15;10.05;;;19.70;99.90;;;;;;5052465;28;20017;-51
2022/08/19 00:15:55;;;;;;;10.57;8.88;;;19.70;99.90;;;;;;5052591;28;20021;-51
2022/08/19 00:18:21;;;;;;;8.57;7.63;;;19.80;99.90;;;;;;5052335;28;20021;-51
2022/08/19 00:20:46;;;;;;;12.38;8.57;;;19.80;99.90;;;;;;5052475;28;20066;-51
2022/08/19 00:23:12;;;;;;;9.70;8.23;;;19.70;99.90;;;;;;5052257;28;20029;-52
2022/08/19 00:25:38;;;;;;;10.13;7.82;;;19.70;99.90;;;;;;5040516;28;20128;-53
2022/08/19 00:28:04;;;;;;;10.43;9.27;;;19.60;99.90;;;;;;5032174;28;20022;-53
2022/08/19 00:30:30;;;;;;;10.20;8.32;;;19.60;99.90;;;;;;5032545;28;20107;-53
2022/08/19 00:32:56;;;;;;;8.75;7.78;;;19.60;99.90;;;;;;5032380;28;20032;-53
2022/08/19 00:35:22;;;;;;;9.27;8.23;;;19.60;99.90;;;;;;5032196;28;20051;-52
2022/08/19 00:37:49;;;;;;;11.35;8.93;;;19.50;99.90;;;;;;5042241;28;20033;-52
2022/08/19 00:40:16;;;;;;;15.65;8.40;;;19.50;99.90;;;;;;5052045;28;20039;-51
2022/08/19 00:42:43;;;;;;;8.90;8.10;;;19.40;99.90;;;;;;5052077;28;20029;-52
2022/08/19 00:45:16;;;;;;;8.98;7.43;;;19.50;99.90;;;;;;5050617;28;20602;-51
2022/08/19 00:47:42;;;;;;;;;;;19.60;99.90;;;;;;5052536;28;20028;-51
2022/08/19 00:50:09;;;;;;;19.17;8.18;;;19.50;99.90;;;;;;5049356;28;19963;-52
2022/08/19 00:52:45;;;;;;;8.73;7.28;;;19.50;99.90;;;;;;5047569;28;20099;-51
2022/08/19 00:55:15;;;;;;;14.93;8.35;;;19.50;99.90;;;;;;5031852;28;20072;-50
2022/08/19 00:57:45;;;;;;;12.50;8.18;;;19.40;99.90;;;;;;5031848;28;20661;-51
2022/08/19 01:00:14;;;;;;;11.05;8.85;;;19.30;99.90;;;;;;5049235;28;20437;-55
2022/08/19 01:02:41;;;;;;;9.18;8.20;;;19.20;99.90;;;;;;5051597;28;20021;-53
2022/08/19 01:05:11;;;;;;;8.30;7.60;;;19.20;99.90;;;;;;5051493;28;20056;-52
2022/08/19 01:07:40;;;;;;;10.38;8.00;;;19.20;99.90;;;;;;5051713;28;20025;-52
2022/08/19 01:10:10;;;;;;;13.95;8.13;;;19.30;99.90;;;;;;5051617;28;20480;-51
2022/08/19 01:12:36;;;;;;;10.60;8.30;;;19.30;99.90;;;;;;5051366;28;20040;-53
2022/08/19 01:15:04;;;;;;;8.77;7.68;;;19.20;99.90;;;;;;5051448;28;20099;-54
2022/08/19 01:17:30;;;;;;;9.07;8.18;;;19.20;99.90;;;;;;5051508;28;20036;-52
2022/08/19 01:19:55;;;;;;;8.60;7.70;;;19.10;99.90;;;;;;5049793;28;20025;-51
2022/08/19 01:22:24;;;;;;;8.18;7.28;;;19.00;99.90;;;;;;5051407;28;20467;-52
2022/08/19 01:24:51;;;;;;;10.00;8.20;;;19.10;99.90;;;;;;5051724;28;20415;-54
2022/08/19 01:27:17;;;;;;;14.57;8.50;;;19.10;99.90;;;;;;5051461;28;20036;-50
2022/08/19 01:29:47;;;;;;;13.52;8.40;;;19.10;99.90;;;;;;5051148;28;20487;-52
2022/08/19 01:32:22;;;;;;;8.63;7.72;;;19.10;99.90;;;;;;5051314;28;20025;-51
2022/08/19 01:34:47;;;;;;;8.80;7.93;;;19.10;99.90;;;;;;5035359;28;20051;-54
2022/08/19 01:37:14;;;;;;;9.93;7.95;;;19.00;99.90;;;;;;5031156;28;20528;-53
2022/08/19 01:39:40;;;;;;;10.38;8.20;;;19.00;99.90;;;;;;5031463;28;20403;-52
2022/08/19 01:42:10;;;;;;;11.65;8.10;;;18.90;99.90;;;;;;5031275;28;20044;-52
2022/08/19 01:44:37;;;;;;;12.60;8.50;;;18.90;99.90;;;;;;5031328;28;20033;-51
2022/08/19 01:47:03;;;;;;;9.43;8.30;;;18.80;99.90;;;;;;5031247;28;20636;-51
2022/08/19 01:49:29;;;;;;;11.13;8.65;;;18.80;99.90;;;;;;5031262;28;20033;-52
2022/08/19 01:51:55;;;;;;;10.05;8.23;;;18.70;99.90;;;;;;5031236;28;20514;-52
2022/08/19 01:54:23;;;;;;;8.73;7.57;;;18.60;99.90;;;;;;5031041;28;20676;-51
2022/08/19 01:56:52;;;;;;;11.95;7.88;;;18.70;99.90;;;;;;5048168;28;20037;-51
2022/08/19 01:59:22;;;;;;;9.45;7.80;;;18.80;99.90;;;;;;5050554;28;20031;-51
2022/08/19 02:01:48;;;;;;;9.57;8.48;;;18.80;99.90;;;;;;5051038;28;20025;-52
2022/08/19 02:04:14;;;;;;;11.15;9.15;;;18.80;99.90;;;;;;5052988;28;20563;-51
2022/08/19 02:06:40;;;;;;;17.75;8.73;;;18.90;99.90;;;;;;5054887;28;20033;-50
2022/08/19 02:09:07;;;;;;;14.70;9.90;;;19.00;99.90;;;;;;5054921;28;20029;-51
2022/08/19 02:11:35;;;;;;;12.55;11.15;;;19.10;99.90;;;;;;5054998;28;20017;-51
2022/08/19 02:14:05;;;;;;;12.57;11.27;;;19.00;99.90;;;;;;5053716;28;20476;-54
2022/08/19 02:16:32;;;;;;;15.38;13.05;;;19.10;99.90;;;;;;5034892;28;20029;-52
2022/08/19 02:19:00;;;;;;;14.85;11.90;;;19.10;99.90;;;;;;5034851;28;20116;-51
2022/08/19 02:21:26;;;;;;;14.27;12.75;;;19.10;99.90;;;;;;5034667;28;20017;-51
2022/08/19 02:23:52;;;;;;;17.98;14.43;;;19.20;99.90;;;;;;5034806;28;20033;-53
2022/08/19 02:26:19;;;;;;;16.42;13.02;;;19.20;99.90;;;;;;5035170;28;20033;-53
2022/08/19 02:28:45;;;;;;;20.17;14.70;;;19.20;99.90;;;;;;5035877;28;20388;-51
2022/08/19 02:31:17;;;;;;;18.08;16.08;;;19.20;99.90;;;;;;5034592;28;20029;-52
2022/08/19 02:33:44;;;;;;;17.00;15.20;;;19.20;99.90;;;;;;5034597;28;20053;-52
2022/08/19 02:36:11;;;;;;;23.25;17.98;;;19.20;99.90;;;;;;5034396;28;20033;-51
2022/08/19 02:38:37;;;;;;;20.13;15.27;;;19.10;99.90;;;;;;5034581;28;20041;-51
2022/08/19 02:41:11;;;;;;;21.10;15.73;;;19.20;99.90;;;;;;5033058;28;20036;-54
2022/08/19 02:43:38;;;;;;;16.15;14.25;;;19.20;99.90;;;;;;5034381;28;20068;-52
2022/08/19 02:46:20;;;;;;;19.98;16.02;;;19.30;99.90;;;;;;5034285;28;20025;-53
2022/08/19 02:48:54;;;;;;;22.02;14.93;;;19.30;99.90;;;;;;5034349;28;20100;-53
2022/08/19 02:51:41;;;;;;;15.30;13.70;;;19.40;99.90;;;;;;5034125;28;20026;-50
2022/08/19 02:54:08;;;;;;;17.55;14.88;;;19.40;99.90;;;;;;5033992;28;20040;-51
2022/08/19 02:56:36;;;;;;;17.83;15.85;;;19.40;99.90;;;;;;5040629;28;20371;-52
2022/08/19 02:59:11;;;;;;;20.70;16.73;;;19.40;99.90;;;;;;5053958;28;20037;-50
2022/08/19 03:01:39;;;;;;;20.75;16.95;;;19.40;99.90;;;;;;5054114;28;20029;-51
2022/08/19 03:04:07;;;;;;;27.10;17.45;;;19.30;99.90;;;;;;5053777;28;20025;-51
2022/08/19 03:06:36;;;;;;;21.10;17.88;;;19.20;99.90;;;;;;5053860;28;20439;-50
2022/08/19 03:09:02;;;;;;;23.02;17.40;;;19.20;99.90;;;;;;5053581;28;20037;-52
2022/08/19 03:11:31;;;;;;;22.90;17.05;;;19.20;99.90;;;;;;5053511;28;20079;-52
2022/08/19 03:13:59;;;;;;;22.85;18.38;;;19.10;99.90;;;;;;5053792;28;20031;-53
2022/08/19 03:16:31;;;;;;;22.75;16.83;;;19.20;99.90;;;;;;5052620;28;20400;-52
2022/08/19 03:19:00;;;;;;;17.38;15.50;;;19.30;99.90;;;;;;5053797;28;20021;-52
2022/08/19 03:21:28;;;;;;;16.92;14.05;;;19.30;99.90;;;;;;5053481;28;20071;-51
2022/08/19 03:23:55;;;;;;;17.40;15.02;;;19.30;99.90;;;;;;5053678;28;20029;-51
2022/08/19 03:26:21;;;;;;;18.48;14.55;;;19.30;99.90;;;;;;5042802;28;20060;-52
2022/08/19 03:28:49;;;;;;;15.00;13.40;;;19.30;99.90;;;;;;5033584;28;20389;-54
2022/08/19 03:31:16;;;;;;;15.90;14.20;;;19.30;99.90;;;;;;5033336;28;20040;-50
2022/08/19 03:33:43;;;;;;;18.38;14.20;;;19.30;99.90;;;;;;5033479;28;20025;-51
2022/08/19 03:36:22;;;;;;;16.08;13.80;;;19.30;99.90;;;;;;5033410;28;20485;-51
2022/08/19 03:38:51;;;;;;;15.80;13.63;;;19.40;99.90;;;;;;5033383;28;20067;-51
2022/08/19 03:41:22;;;;;;;16.52;14.45;;;19.50;99.90;;;;;;5033039;28;20017;-55
2022/08/19 03:43:49;;;;;;;16.00;12.73;;;19.50;99.90;;;;;;5033265;28;20104;-51
2022/08/19 03:46:21;;;;;;;15.35;13.27;;;19.40;99.90;;;;;;5033119;28;20056;-51
2022/08/19 03:48:49;;;;;;;16.50;13.82;;;19.50;99.90;;;;;;5033182;28;20025;-51
2022/08/19 03:51:28;;;;;;;24.45;16.25;;;19.50;99.90;;;;;;5032953;28;20128;-51
2022/08/19 03:53:55;;;;;;;18.00;14.63;;;19.50;99.90;;;;;;5033193;28;20025;-51
2022/08/19 03:56:21;;;;;;;15.85;14.05;;;19.50;99.90;;;;;;5033066;28;20599;-52
2022/08/19 03:58:59;;;;;;;19.02;16.02;;;19.50;99.90;;;;;;5033000;28;20368;-50
2022/08/19 04:01:27;;;;;;;16.35;14.60;;;19.50;99.90;;;;;;5032825;28;20512;-52
2022/08/19 04:03:54;;;;;;;17.83;15.05;;;19.40;99.90;;;;;;5032965;28;20504;-51
2022/08/19 04:06:26;;;;;;;19.15;15.48;;;19.40;99.90;;;;;;5032708;28;20025;-52
2022/08/19 04:08:54;;;;;;;17.88;15.88;;;19.40;99.90;;;;;;5032780;28;20029;-50
2022/08/19 04:11:23;;;;;;;20.95;17.02;;;19.40;99.90;;;;;;5043438;28;20029;-51
2022/08/19 04:13:53;;;;;;;20.65;18.25;;;19.40;99.90;;;;;;5052614;28;20021;-51
2022/08/19 04:16:21;;;;;;;21.40;18.92;;;19.40;99.90;;;;;;5052575;28;20441;-51
2022/08/19 04:18:47;;;;;;;24.25;19.17;;;19.40;99.90;;;;;;5052693;28;20029;-51
2022/08/19 04:21:22;;;;;;;23.20;19.85;;;19.40;99.90;;;;;;5052301;28;20074;-52
2022/08/19 04:23:49;;;;;;;20.35;16.63;;;19.40;99.90;;;;;;5052490;28;20021;-51
2022/08/19 04:26:22;;;;;;;20.15;17.90;;;19.40;99.90;;;;;;5039794;28;20583;-52
2022/08/19 04:28:48;;;;;;;22.40;18.42;;;19.40;99.90;;;;;;5032201;28;20075;-51
2022/08/19 04:31:17;;;;;;;22.08;19.02;;;19.40;99.90;;;;;;5030427;28;20030;-50
2022/08/19 04:33:43;;;;;;;27.13;18.73;;;19.40;99.90;;;;;;5031004;28;20075;-52
2022/08/19 04:36:21;;;;;;;23.33;18.73;;;19.40;99.90;;;;;;5032146;28;20025;-50
2022/08/19 04:38:53;;;;;;;24.45;19.58;;;19.40;99.90;;;;;;5032296;28;20108;-53
2022/08/19 04:44:04;;;;;;;26.75;21.08;;;19.30;99.90;;;;;;5031923;28;20036;-52
2022/08/19 04:46:31;;;;;;;30.38;21.05;;;19.30;99.90;;;;;;5032206;28;20033;-54
2022/08/19 04:48:58;;;;;;;24.67;21.17;;;19.20;99.90;;;;;;5031934;28;20434;-52
2022/08/19 04:51:24;;;;;;;26.38;21.55;;;19.20;99.90;;;;;;5031963;28;20049;-54
2022/08/19 04:53:51;;;;;;;32.75;22.75;;;19.20;99.90;;;;;;5032098;28;20064;-54
2022/08/19 04:56:20;;;;;;;33.15;22.05;;;19.20;99.90;;;;;;5031798;28;20033;-51
2022/08/19 04:58:46;;;;;;;32.55;21.25;;;19.10;99.90;;;;;;5031802;28;20079;-52
2022/08/19 05:01:16;;;;;;;23.77;19.85;;;19.10;99.90;;;;;;5031759;28;20471;-51
2022/08/19 05:03:42;;;;;;;33.35;23.42;;;19.10;99.90;;;;;;5031690;28;20098;-51
2022/08/19 05:06:11;;;;;;;29.85;22.77;;;19.00;99.90;;;;;;5031729;28;20076;-51
2022/08/19 05:08:41;;;;;;;26.65;21.77;;;19.00;99.90;;;;;;5030524;28;20080;-51
2022/08/19 05:11:20;;;;;;;28.13;22.60;;;18.90;99.90;;;;;;5031607;28;20029;-51
2022/08/19 05:13:48;;;;;;;27.08;20.45;;;18.90;99.90;;;;;;5031744;28;20116;-54
2022/08/19 05:16:15;;;;;;;26.65;21.17;;;18.90;99.90;;;;;;5031553;28;20032;-51
2022/08/19 05:24:11;;;;;;;31.20;22.05;;;18.80;99.90;;;;;;5031978;28;20095;-52
2022/08/19 05:26:38;;;;;;;25.17;21.88;;;18.90;99.90;;;;;;5031559;28;20037;-53
2022/08/19 05:29:04;;;;;;;28.20;22.58;;;18.90;99.90;;;;;;5031251;28;20511;-53
2022/08/19 05:31:31;;;;;;;22.58;19.38;;;19.00;99.90;;;;;;5031586;28;20433;-53
2022/08/19 05:33:58;;;;;;;29.45;22.48;;;19.10;99.90;;;;;;5030227;28;20025;-51
2022/08/19 05:36:25;;;;;;;32.83;22.58;;;19.00;99.90;;;;;;5031275;28;20029;-55
2022/08/19 05:38:52;;;;;;;25.90;21.42;;;18.90;99.90;;;;;;5037145;28;20024;-74
2022/08/19 05:41:18;;;;;;;28.25;21.77;;;18.90;99.90;;;;;;5055378;28;20379;-51
2022/08/19 05:43:44;;;;;;;28.38;21.00;;;19.00;99.90;;;;;;5055544;28;20438;-51
2022/08/19 05:46:18;;;;;;;28.95;22.63;;;19.10;99.90;;;;;;5055072;28;20021;-54
2022/08/19 05:48:43;;;;;;;;;;;19.20;99.90;;;;;;5055673;28;20481;-54
2022/08/19 05:51:09;;;;;;;26.52;22.10;;;19.30;99.90;;;;;;5053889;28;19992;-54
2022/08/19 05:53:35;;;;;;;27.85;22.15;;;19.30;99.90;;;;;;5050646;28;20021;-54
2022/08/19 05:56:06;;;;;;;23.95;20.90;;;19.40;99.90;;;;;;5033559;28;20065;-51
2022/08/19 05:58:32;;;;;;;31.75;21.17;;;19.50;99.90;;;;;;5033907;28;20033;-51
2022/08/19 06:01:04;;;;;;;22.63;20.08;;;19.70;99.90;;;;;;5033741;28;20028;-52
2022/08/19 06:03:30;;;;;;;23.77;19.25;;;19.80;99.90;;;;;;5033700;28;20022;-54
2022/08/19 06:05:58;;;;;;;26.77;21.27;;;19.90;99.90;;;;;;5034091;28;20025;-53
2022/08/19 06:08:24;;;;;;;26.30;21.63;;;19.90;99.90;;;;;;5033533;28;20032;-52
2022/08/19 06:10:49;;;;;;;25.20;22.23;;;19.90;99.90;;;;;;5032513;28;20022;-53
2022/08/19 06:13:15;;;;;;;24.05;20.58;;;20.00;99.90;;;;;;5032168;28;20064;-52
2022/08/19 06:15:43;;;;;;;24.33;19.85;;;20.10;99.90;;;;;;5030629;28;20030;-54
2022/08/19 06:18:09;;;;;;;25.85;20.17;;;20.10;99.90;;;;;;5032083;28;20030;-53
2022/08/19 06:20:36;;;;;;;24.85;20.30;;;20.00;99.90;;;;;;5031878;28;20026;-53
2022/08/19 06:23:01;;;;;;;26.52;20.10;;;20.00;99.90;;;;;;5032163;28;20041;-54
2022/08/19 06:25:27;;;;;;;21.13;18.85;;;20.00;99.90;;;;;;5032372;28;20022;-54
2022/08/19 06:27:53;;;;;;;21.20;19.00;;;20.20;99.90;;;;;;5033449;28;20025;-53
2022/08/19 06:30:19;;;;;;;23.73;20.50;;;20.20;99.90;;;;;;5031816;28;20468;-52
2022/08/19 06:32:44;;;;;;;25.70;20.42;;;20.20;99.90;;;;;;5033550;28;20376;-52
2022/08/19 06:35:11;;;;;;;22.25;19.85;;;20.30;99.90;;;;;;5033264;28;20339;-53
2022/08/19 06:37:37;;;;;;;21.65;19.35;;;20.50;99.90;;;;;;5033332;28;20385;-52
2022/08/19 06:40:03;;;;;;;22.27;18.58;;;20.50;99.90;;;;;;5033116;28;20025;-51
2022/08/19 06:42:30;;;;;;;33.40;18.83;;;20.50;99.90;;;;;;5033238;28;20021;-54
2022/08/19 06:44:55;;;;;;;21.42;18.73;;;20.50;99.90;;;;;;5033069;28;20049;-51
2022/08/19 06:47:22;;;;;;;23.92;19.20;;;20.40;99.90;;;;;;5031707;28;20076;-53
2022/08/19 06:49:47;;;;;;;20.50;18.10;;;20.50;99.90;;;;;;5032943;28;20013;-54
2022/08/19 06:52:14;;;;;;;21.48;18.75;;;20.50;99.90;;;;;;5033968;28;20022;-52
2022/08/19 06:54:41;;;;;;;20.00;17.85;;;20.50;99.90;;;;;;5052968;28;20024;-51
2022/08/19 06:57:13;;;;;;;22.35;20.00;;;20.40;99.90;;;;;;5052596;28;20048;-52
2022/08/19 06:59:39;;;;;;;23.92;19.83;;;20.40;99.90;;;;;;5052756;28;20032;-51
2022/08/19 07:02:06;;;;;;;24.98;19.88;;;20.40;99.90;;;;;;5052762;28;20337;-52
2022/08/19 07:04:33;;;;;;;25.23;20.50;;;20.30;99.90;;;;;;5052743;28;20445;-52
2022/08/19 07:07:09;;;;;;;23.23;20.35;;;20.30;99.90;;;;;;5052309;28;20028;-52
2022/08/19 07:09:43;;;;;;;23.83;19.73;;;20.20;99.90;;;;;;5052509;28;20100;-51
2022/08/19 07:12:17;;;;;;;23.13;17.40;;;20.20;99.90;;;;;;5052410;28;20078;-55
2022/08/19 07:14:42;;;;;;;26.65;18.00;;;20.40;99.90;;;;;;5051138;28;20168;-55
2022/08/19 07:17:10;;;;;;;21.67;18.90;;;20.40;99.90;;;;;;5040299;28;20029;-52
2022/08/19 07:19:38;;;;;;;26.15;20.58;;;20.30;99.90;;;;;;5032647;28;20022;-51
2022/08/19 07:22:06;;;;;;;20.73;18.52;;;20.40;99.90;;;;;;5032323;28;20026;-54
2022/08/19 07:24:32;;;;;;;20.02;17.65;;;20.30;99.90;;;;;;5032436;28;20025;-53
2022/08/19 07:27:02;;;;;;;21.85;19.55;;;20.40;99.90;;;;;;5032431;28;20520;-52
2022/08/19 07:29:29;;;;;;;23.48;19.13;;;20.50;99.90;;;;;;5032240;28;20045;-54
2022/08/19 07:31:58;;;;;;;30.40;20.25;;;20.60;99.90;;;;;;5044209;28;20132;-52
2022/08/19 07:34:25;;;;;;;23.45;20.05;;;20.70;99.90;;;;;;5052019;28;20502;-53
2022/08/19 07:36:51;;;;;;;24.42;21.00;;;20.70;99.90;;;;;;5052108;28;20033;-55
2022/08/19 07:39:27;;;;;;;22.13;19.63;;;20.70;99.90;;;;;;5051907;28;20387;-54
2022/08/19 07:41:54;;;;;;;23.52;20.13;;;20.70;99.90;;;;;;5050667;28;20032;-55
2022/08/19 07:44:20;;;;;;;26.60;19.75;;;20.90;99.90;;;;;;5051857;28;20033;-53
2022/08/19 07:46:52;;;;;;;21.67;18.58;;;21.10;99.90;;;;;;5051627;28;20056;-53
2022/08/19 07:49:19;;;;;;;19.48;17.45;;;21.20;99.90;;;;;;5051729;28;20118;-54
2022/08/19 07:52:01;;;;;;;17.90;15.32;;;21.30;99.90;;;;;;5051648;28;20075;-53
2022/08/19 07:54:30;;;;;;;18.27;16.08;;;21.40;99.90;;;;;;5051789;28;20091;-53
2022/08/19 07:56:56;;;;;;;22.45;15.73;;;21.60;99.90;;;;;;5051628;28;20068;-52
2022/08/19 07:59:23;;;;;;;12.02;10.82;;;21.90;99.90;;;;;;5051508;28;20017;-52
2022/08/19 08:01:50;;;;;;;15.45;13.45;;;21.90;99.90;;;;;;5035475;28;20029;-53
2022/08/19 08:09:47;;;;;;;21.77;16.55;;;21.80;99.90;;;;;;5032004;28;20037;-55
2022/08/19 08:12:24;;;;;;;19.55;17.02;;;21.80;99.90;;;;;;5030284;28;20021;-52
2022/08/19 08:14:54;;;;;;;23.90;18.83;;;21.90;99.90;;;;;;5031516;28;20029;-52
2022/08/19 08:17:21;;;;;;;21.10;16.25;;;22.10;99.90;;;;;;5031313;28;20014;-55
2022/08/19 08:19:48;;;;;;;23.15;17.27;;;22.20;99.90;;;;;;5031355;28;20021;-53
2022/08/19 08:25:09;;;;;;;16.88;15.15;;;22.70;99.90;;;;;;5031741;28;20128;-55
2022/08/19 08:27:39;;;;;;;20.15;15.50;;;23.10;99.90;;;;;;5031359;28;20098;-52
2022/08/19 08:30:10;;;;;;;16.35;14.45;;;23.40;99.90;;;;;;5031042;28;20034;-53
2022/08/19 08:32:38;;;;;;;17.83;16.08;;;23.60;99.90;;;;;;5031212;28;20021;-52
2022/08/19 08:35:06;;;;;;;16.60;14.90;;;23.60;99.90;;;;;;5029754;28;20079;-53
2022/08/19 08:37:32;;;;;;;14.63;12.98;;;23.80;99.90;;;;;;5030963;28;20018;-51
2022/08/19 08:39:58;;;;;;;16.27;13.55;;;23.60;99.90;;;;;;5044635;28;20476;-56
2022/08/19 08:42:53;;;;;;;14.77;13.30;;;23.70;99.90;;;;;;5050709;28;20106;-55
2022/08/19 08:45:20;;;;;;;14.57;11.90;;;23.60;99.90;;;;;;5050676;28;20029;-52
2022/08/19 08:47:52;;;;;;;12.60;10.82;;;23.60;99.90;;;;;;5050833;28;20383;-54
2022/08/19 08:50:29;;;;;;;13.68;12.20;;;23.90;99.90;;;;;;5050476;28;20028;-52
2022/08/19 08:52:57;;;;;;;16.27;14.43;;;24.30;99.90;;;;;;5050658;28;20021;-53
2022/08/19 08:55:26;;;;;;;16.75;14.23;;;24.40;99.90;;;;;;5031079;28;20029;-52
2022/08/19 08:57:55;;;;;;;19.58;14.93;;;24.50;99.90;;;;;;5030767;28;20128;-51
2022/08/19 09:00:29;;;;;;;14.55;13.15;;;24.30;99.90;;;;;;5030458;28;20029;-54
2022/08/19 09:02:57;;;;;;;16.85;15.15;;;24.60;99.90;;;;;;5030704;28;20025;-51
2022/08/19 09:05:26;;;;;;;17.05;13.98;;;24.30;99.90;;;;;;5030467;28;20078;-54
2022/08/19 09:08:18;;;;;;;14.18;12.60;;;24.10;99.90;;;;;;5030908;28;20056;-53
2022/08/19 09:10:52;;;;;;;15.85;14.20;;;24.20;99.90;;;;;;5030322;28;20018;-52
2022/08/19 09:13:31;;;;;;;15.20;13.60;;;24.70;99.90;;;;;;5028480;28;20022;-52
2022/08/19 09:16:06;;;;;;;16.02;14.32;;;24.80;99.90;;;;;;5030517;28;20026;-53
2022/08/19 09:18:46;;;;;;;14.38;12.32;;;24.80;99.90;;;;;;5030464;28;20112;-54
2022/08/19 09:21:13;;;;;;;12.30;10.60;;;24.10;99.90;;;;;;5030227;28;20021;-54
2022/08/19 09:23:39;;;;;;;15.00;11.60;;;24.10;99.90;;;;;;5039145;28;20025;-55
2022/08/19 09:26:13;;;;;;;15.90;12.10;;;24.00;99.90;;;;;;5050073;28;20020;-53
2022/08/19 09:28:45;;;;;;;14.02;12.10;;;24.30;99.90;;;;;;5048867;28;20446;-56
2022/08/19 09:31:19;;;;;;;13.50;11.82;;;24.70;99.90;;;;;;5050063;28;20033;-54
2022/08/19 09:33:46;;;;;;;13.07;11.80;;;24.70;99.90;;;;;;5050177;28;20447;-53
2022/08/19 09:36:14;;;;;;;14.63;12.38;;;25.00;99.90;;;;;;5049984;28;20021;-53
2022/08/19 09:38:41;;;;;;;14.65;12.68;;;25.10;99.80;;;;;;5038558;28;20329;-53
2022/08/19 09:41:12;;;;;;;14.57;13.15;;;25.30;99.90;;;;;;5030041;28;20060;-53
2022/08/19 09:43:38;;;;;;;21.67;14.15;;;25.50;99.90;;;;;;5030240;28;20032;-56
2022/08/19 09:46:06;;;;;;;13.98;12.50;;;25.20;99.60;;;;;;5047455;28;20025;-55
2022/08/19 09:48:32;;;;;;;16.02;14.43;;;25.60;99.30;;;;;;5058907;28;20033;-55
2022/08/19 09:51:17;;;;;;;16.75;14.85;;;25.20;98.90;;;;;;5058212;28;20052;-52
2022/08/19 09:53:44;;;;;;;16.55;14.88;;;25.50;99.60;;;;;;5057352;28;20029;-55
2022/08/19 09:56:11;;;;;;;16.05;14.45;;;25.30;99.20;;;;;;5057993;28;20553;-53
2022/08/19 09:58:38;;;;;;;16.00;14.40;;;24.70;99.50;;;;;;5058729;28;20081;-53
2022/08/19 10:01:05;;;;;;;17.15;14.82;;;24.70;99.90;;;;;;5036945;28;20487;-54
2022/08/19 10:03:32;;;;;;;16.17;13.27;;;24.50;99.90;;;;;;5038202;28;20037;-53
2022/08/19 10:06:01;;;;;;;14.68;13.18;;;24.50;99.90;;;;;;5038541;28;20029;-54
2022/08/19 10:08:33;;;;;;;17.60;13.52;;;24.90;99.90;;;;;;5039780;28;20036;-52
2022/08/19 10:11:01;;;;;;;20.80;14.50;;;25.00;99.80;;;;;;5058001;28;20086;-55
2022/08/19 10:13:29;;;;;;;14.80;12.82;;;24.90;99.60;;;;;;5049312;28;20395;-53
2022/08/19 10:16:05;;;;;;;13.75;12.32;;;25.00;99.70;;;;;;5058216;28;20084;-55
2022/08/19 10:18:33;;;;;;;15.70;12.68;;;25.40;99.10;;;;;;5056900;28;20055;-53
2022/08/19 10:21:24;;;;;;;13.82;12.43;;;26.00;99.20;;;;;;5043018;28;20462;-51
2022/08/19 10:23:52;;;;;;;16.02;13.18;;;26.60;97.60;;;;;;5037853;28;20356;-55
2022/08/19 10:26:21;;;;;;;17.00;13.98;;;26.90;96.80;;;;;;5041819;28;20083;-54
2022/08/19 10:28:48;;;;;;;16.08;14.18;;;26.40;97.70;;;;;;5041508;28;20044;-55
2022/08/19 10:31:20;;;;;;;14.73;13.10;;;26.20;98.40;;;;;;5042786;28;20044;-52
2022/08/19 10:33:47;;;;;;;14.70;13.18;;;26.30;97.80;;;;;;5062305;28;20024;-54
2022/08/19 10:36:26;;;;;;;13.27;11.75;;;26.20;97.40;;;;;;5060229;28;20051;-52
2022/08/19 10:38:58;;;;;;;12.73;10.63;;;26.10;97.00;;;;;;5061526;28;20489;-55
2022/08/19 10:41:26;;;;;;;13.95;9.93;;;26.40;97.00;;;;;;5060033;28;20572;-52
2022/08/19 10:43:59;;;;;;;12.55;10.23;;;26.50;97.10;;;;;;5040808;28;20045;-53
2022/08/19 10:46:26;;;;;;;11.30;10.10;;;26.50;95.80;;;;;;5041779;28;20025;-54
2022/08/19 10:48:53;;;;;;;13.43;10.35;;;27.10;95.90;;;;;;5040859;28;20388;-53
2022/08/19 10:54:04;;;;;;;12.98;11.65;;;27.40;95.70;;;;;;5041912;28;20076;-52
2022/08/19 10:59:17;;;;;;;15.15;12.77;;;27.90;94.70;;;;;;5041220;28;20140;-57
2022/08/19 11:01:45;;;;;;;14.30;12.80;;;28.30;94.40;;;;;;5040377;28;20024;-54
2022/08/19 11:04:13;;;;;;;17.75;13.65;;;27.90;94.60;;;;;;5040690;28;20091;-52
2022/08/19 11:06:41;;;;;;;13.07;11.82;;;27.90;94.50;;;;;;5041417;28;20025;-55
2022/08/19 11:09:07;;;;;;;13.23;11.85;;;28.20;94.50;;;;;;5040939;28;20090;-53
2022/08/19 11:11:35;;;;;;;13.15;11.10;;;27.70;93.90;;;;;;5041324;28;20108;-55
2022/08/19 11:14:00;;;;;;;16.15;11.52;;;27.40;94.60;;;;;;5041363;28;20024;-54
2022/08/19 11:16:27;;;;;;;20.92;10.93;;;27.50;94.80;;;;;;5041524;28;20423;-54
2022/08/19 11:19:01;;;;;;;12.27;10.45;;;27.90;94.30;;;;;;5041197;28;20434;-55
2022/08/19 11:21:33;;;;;;;15.18;11.98;;;27.70;93.60;;;;;;5041105;28;20385;-55
2022/08/19 11:24:03;;;;;;;13.48;11.05;;;27.60;93.80;;;;;;5040570;28;20393;-52
2022/08/19 11:26:30;;;;;;;15.73;11.75;;;27.40;94.20;;;;;;5040591;28;20032;-53
2022/08/19 11:29:00;;;;;;;12.05;9.18;;;27.60;94.90;;;;;;5040779;28;20044;-54
2022/08/19 11:31:30;;;;;;;16.05;11.55;;;28.30;95.00;;;;;;5040748;28;20032;-55
2022/08/19 11:34:02;;;;;;;13.05;11.65;;;27.80;93.40;;;;;;5042460;28;20021;-55
2022/08/19 11:36:28;;;;;;;11.05;9.90;;;27.50;93.70;;;;;;5059378;28;20281;-54
2022/08/19 11:38:54;;;;;;;12.68;11.30;;;27.10;94.80;;;;;;5058274;28;20372;-54
2022/08/19 11:41:25;;;;;;;15.23;11.65;;;26.80;94.20;;;;;;5039702;28;20067;-54
2022/08/19 11:43:53;;;;;;;20.17;12.20;;;26.50;94.90;;;;;;5040204;28;20071;-50
2022/08/19 11:46:19;;;;;;;12.27;10.60;;;26.50;94.10;;;;;;5039484;28;20029;-55
2022/08/19 11:48:45;;;;;;;12.00;10.80;;;26.40;94.30;;;;;;5060557;28;20028;-51
2022/08/19 11:51:14;;;;;;;11.98;10.73;;;26.90;95.10;;;;;;5060328;28;20028;-53
2022/08/19 11:53:40;;;;;;;14.00;10.07;;;27.60;94.70;;;;;;5040295;28;20088;-52
2022/08/19 11:56:07;;;;;;;13.50;11.23;;;28.20;93.90;;;;;;5040364;28;20102;-56
2022/08/19 11:58:34;;;;;;;11.98;10.68;;;28.00;93.90;;;;;;5039956;28;20365;-54
2022/08/19 12:01:00;;;;;;;12.40;11.15;;;27.80;93.70;;;;;;5040606;28;20035;-54
2022/08/19 12:03:27;;;;;;;12.30;10.10;;;27.30;93.60;;;;;;5041071;28;20025;-54
2022/08/19 12:05:53;;;;;;;10.55;9.38;;;27.30;94.10;;;;;;5059687;28;20433;-54
2022/08/19 12:08:19;;;;;;;12.77;11.43;;;27.30;93.90;;;;;;5059566;28;20039;-52
2022/08/19 12:10:45;;;;;;;14.10;10.82;;;26.70;94.70;;;;;;5060089;28;20031;-52
2022/08/19 12:13:13;;;;;;;11.25;10.13;;;26.50;94.50;;;;;;5057648;28;20028;-54
2022/08/19 12:15:40;;;;;;;16.10;10.95;;;26.60;94.80;;;;;;5040087;28;20453;-54
2022/08/19 12:18:06;;;;;;;11.45;9.88;;;26.60;95.00;;;;;;5039715;28;20031;-52
2022/08/19 12:20:39;;;;;;;10.85;9.82;;;26.30;95.10;;;;;;5039716;28;20410;-54
2022/08/19 12:23:09;;;;;;;11.18;10.00;;;26.50;95.00;;;;;;5049852;28;20028;-51
2022/08/19 12:25:35;;;;;;;13.93;9.57;;;26.80;94.40;;;;;;5059214;28;20040;-55
2022/08/19 12:28:02;;;;;;;10.63;8.80;;;27.00;94.00;;;;;;5059973;28;20056;-54
2022/08/19 12:30:27;;;;;;;14.68;9.63;;;27.30;93.80;;;;;;5066226;28;20111;-52
2022/08/19 12:32:53;;;;;;;14.77;10.65;;;28.10;94.50;;;;;;5070966;28;20440;-52
2022/08/19 12:35:22;;;;;;;10.40;9.45;;;28.50;94.10;;;;;;5070877;28;20016;-55
2022/08/19 12:37:48;;;;;;;12.32;10.60;;;28.40;93.70;;;;;;5065284;28;20028;-55
2022/08/19 12:40:17;;;;;;;12.35;10.73;;;28.70;93.60;;;;;;5030636;28;20546;-54
2022/08/19 12:42:43;;;;;;;12.23;10.85;;;29.50;93.20;;;;;;5030934;28;20036;-55
2022/08/19 12:45:10;;;;;;;21.17;10.45;;;30.30;91.30;;;;;;5030887;28;20097;-55
2022/08/19 12:47:37;;;;;;;16.75;11.15;;;30.20;90.90;;;;;;5030710;28;20026;-56
2022/08/19 12:50:08;;;;;;;11.88;10.70;;;30.40;90.00;;;;;;5030752;28;20395;-57
2022/08/19 12:52:36;;;;;;;12.15;10.93;;;30.80;90.10;;;;;;5031323;28;20094;-54
2022/08/19 12:55:03;;;;;;;13.80;12.15;;;31.00;88.80;;;;;;5050685;28;20140;-55
2022/08/19 12:57:32;;;;;;;13.50;11.20;;;31.00;87.50;;;;;;5050411;28;20041;-56
2022/08/19 13:00:10;;;;;;;11.77;10.48;;;31.20;86.80;;;;;;5050479;28;20028;-56